Time;durP1;ratioP1;P1;durP2;ratioP2;P2;SDS_P1;SDS_P2;PMS_P1;PMS_P2;Temp;Humidity;BMP_temperature;BMP_pressure;BME280_temperature;BME280_humidity;BME280_pressure;Samples;Min_cycle;Max_cycle;Signal;HPM_P1;HPM_P2
2022/11/08 00:01:31;;;;;;;;;;;12.80;82.30;;;;;;5108598;27;19922;-83
2022/11/08 00:03:57;;;;;;;;;;;12.70;82.30;;;;;;5093404;28;20316;-81
2022/11/08 00:14:35;;;;;;;;;;;12.70;82.20;;;;;;5107379;27;19930;-82
2022/11/08 00:17:00;;;;;;;;;;;12.80;82.20;;;;;;5094367;28;19916;-83
2022/11/08 00:19:26;;;;;;;;;;;12.70;82.00;;;;;;5107831;27;20284;-81
2022/11/08 00:21:51;;;;;;;;;;;12.80;81.90;;;;;;5080054;22;20352;-82
2022/11/08 00:24:17;;;;;;;;;;;12.70;82.00;;;;;;5083781;28;19916;-83
2022/11/08 00:26:42;;;;;;;;;;;12.80;81.80;;;;;;5071254;28;19913;-82
2022/11/08 00:29:07;;;;;;;;;;;12.80;81.70;;;;;;5067562;28;20320;-82
2022/11/08 00:31:33;;;;;;;;;;;12.80;81.60;;;;;;5058725;28;19913;-82
2022/11/08 00:33:58;;;;;;;;;;;12.60;82.30;;;;;;5060926;28;19913;-82
2022/11/08 00:36:25;;;;;;;;;;;12.70;82.30;;;;;;5061845;28;20401;-82
2022/11/08 00:38:50;;;;;;;;;;;12.70;82.20;;;;;;5058628;28;19922;-82
2022/11/08 00:41:15;;;;;;;;;;;12.70;81.60;;;;;;5057898;28;19912;-83
2022/11/08 00:43:41;;;;;;;;;;;12.70;81.80;;;;;;5061083;28;19921;-82
2022/11/08 00:46:06;;;;;;;;;;;12.70;81.60;;;;;;5062859;28;19976;-82
2022/11/08 00:48:32;;;;;;;;;;;12.60;81.80;;;;;;5077465;28;20080;-83
2022/11/08 00:51:01;;;;;;;;;;;12.60;81.90;;;;;;5063385;28;20479;-82
2022/11/08 00:53:27;;;;;;;;;;;12.70;81.80;;;;;;5057271;28;20266;-83
2022/11/08 00:55:59;;;;;;;;;;;12.60;81.80;;;;;;5078662;28;19965;-83
2022/11/08 00:58:25;;;;;;;;;;;12.60;81.70;;;;;;5059153;28;19984;-82
2022/11/08 01:00:50;;;;;;;;;;;12.70;81.40;;;;;;5067231;28;19952;-82
2022/11/08 01:03:19;;;;;;;;;;;12.70;81.30;;;;;;5063409;28;19939;-82
2022/11/08 01:05:45;;;;;;;;;;;13.00;80.60;;;;;;5065434;28;20011;-82
2022/11/08 01:08:11;;;;;;;;;;;13.00;80.60;;;;;;5066643;28;19920;-82
2022/11/08 01:10:39;;;;;;;;;;;12.90;80.70;;;;;;5079283;28;19956;-81
2022/11/08 01:13:05;;;;;;;;;;;13.00;80.50;;;;;;5077005;28;20011;-82
2022/11/08 01:15:37;;;;;;;;;;;12.90;80.40;;;;;;5080917;28;20048;-82
2022/11/08 01:18:03;;;;;;;;;;;12.90;80.40;;;;;;5068331;28;19916;-82
2022/11/08 01:20:29;;;;;;;;;;;13.00;80.20;;;;;;5086895;28;20399;-82
2022/11/08 01:22:54;;;;;;;;;;;13.10;79.70;;;;;;5058432;28;19959;-82
2022/11/08 01:25:20;;;;;;;;;;;13.10;79.60;;;;;;5062682;28;19937;-82
2022/11/08 01:27:45;;;;;;;;;;;13.20;79.20;;;;;;5079633;28;19913;-83
2022/11/08 01:30:11;;;;;;;;;;;13.20;79.40;;;;;;5063583;28;20412;-83
2022/11/08 01:32:36;;;;;;;;;;;13.10;79.30;;;;;;5077400;28;19985;-82
2022/11/08 01:35:02;;;;;;;;;;;13.10;79.40;;;;;;5076326;28;19913;-82
2022/11/08 01:37:28;;;;;;;;;;;12.90;80.10;;;;;;5062042;28;19963;-82
2022/11/08 01:39:53;;;;;;;;;;;12.90;80.10;;;;;;5070140;28;19942;-83
2022/11/08 01:42:28;;;;;;;;;;;12.80;80.40;;;;;;5057572;28;19941;-82
2022/11/08 01:44:56;;;;;;;;;;;12.80;80.30;;;;;;5062113;28;20003;-82
2022/11/08 01:47:21;;;;;;;;;;;12.80;80.40;;;;;;5065580;28;19969;-83
2022/11/08 01:49:47;;;;;;;;;;;12.70;80.60;;;;;;5052017;28;20011;-83
2022/11/08 01:52:13;;;;;;;;;;;12.60;81.00;;;;;;5074694;28;19913;-83
2022/11/08 01:54:42;;;;;;;;;;;12.80;80.40;;;;;;5050534;28;19915;-83
2022/11/08 01:57:10;;;;;;;;;;;12.80;80.60;;;;;;5052877;28;20339;-82
2022/11/08 01:59:37;;;;;;;;;;;13.00;80.10;;;;;;5070303;28;19959;-82
2022/11/08 02:02:03;;;;;;;;;;;13.00;80.20;;;;;;5071012;28;19939;-83
2022/11/08 02:04:29;;;;;;;;;;;13.00;80.20;;;;;;5057484;28;19912;-83
2022/11/08 02:06:55;;;;;;;;;;;13.00;80.10;;;;;;5057199;28;19913;-82
2022/11/08 02:09:20;;;;;;;;;;;13.10;79.80;;;;;;5075497;28;19921;-82
2022/11/08 02:11:46;;;;;;;;;;;13.10;79.70;;;;;;5069441;28;21003;-83
2022/11/08 02:14:12;;;;;;;;;;;13.10;79.60;;;;;;5071509;28;19923;-82
2022/11/08 02:16:37;;;;;;;;;;;13.10;79.70;;;;;;5073682;28;19909;-82
2022/11/08 02:19:04;;;;;;;;;;;13.10;79.60;;;;;;5076189;28;19916;-82
2022/11/08 02:21:41;;;;;;;;;;;13.10;79.60;;;;;;5052388;28;19916;-82
2022/11/08 02:24:10;;;;;;;;;;;13.10;79.80;;;;;;5073579;28;20419;-82
2022/11/08 02:26:36;;;;;;;;;;;13.10;79.50;;;;;;5055818;28;19912;-82
2022/11/08 02:29:21;;;;;;;;;;;13.10;79.50;;;;;;5053409;28;20378;-83
2022/11/08 02:31:47;;;;;;;;;;;13.10;79.40;;;;;;5054922;28;20007;-82
2022/11/08 02:34:13;;;;;;;;;;;13.10;79.30;;;;;;5065857;28;19920;-82
2022/11/08 02:36:39;;;;;;;;;;;13.10;79.00;;;;;;5075265;28;20011;-82
2022/11/08 02:39:04;;;;;;;;;;;13.20;79.10;;;;;;5070047;28;21652;-83
2022/11/08 02:41:30;;;;;;;;;;;13.10;79.20;;;;;;5053321;28;20104;-83
2022/11/08 02:43:56;;;;;;;;;;;13.10;79.00;;;;;;5051518;28;19973;-83
2022/11/08 02:46:21;;;;;;;;;;;13.30;78.20;;;;;;5080094;28;19912;-83
2022/11/08 02:48:47;;;;;;;;;;;13.20;78.40;;;;;;5083787;28;19966;-83
2022/11/08 02:51:12;;;;;;;;;;;13.30;78.10;;;;;;5048835;28;19912;-83
2022/11/08 02:53:38;;;;;;;;;;;13.40;77.50;;;;;;5049917;28;20004;-83
2022/11/08 02:56:03;;;;;;;;;;;13.30;77.60;;;;;;5060814;28;19912;-83
2022/11/08 02:58:29;;;;;;;;;;;13.20;78.10;;;;;;5072749;28;19966;-83
2022/11/08 03:00:54;;;;;;;;;;;13.20;77.70;;;;;;5052309;28;19971;-83
2022/11/08 03:03:20;;;;;;;;;;;13.20;77.50;;;;;;5050101;28;19928;-82
2022/11/08 03:05:46;;;;;;;;;;;13.30;77.30;;;;;;5050509;28;19944;-82
2022/11/08 03:08:12;;;;;;;;;;;13.30;77.20;;;;;;5054083;28;19921;-82
2022/11/08 03:10:37;;;;;;;;;;;13.20;77.50;;;;;;5055854;28;19920;-83
2022/11/08 03:13:04;;;;;;;;;;;13.10;77.50;;;;;;5071503;28;20304;-83
2022/11/08 03:15:29;;;;;;;;;;;13.10;77.70;;;;;;5061167;28;20366;-83
2022/11/08 03:17:55;;;;;;;;;;;13.00;77.90;;;;;;5060224;28;19917;-83
2022/11/08 03:20:21;;;;;;;;;;;13.00;78.00;;;;;;5054590;28;19947;-83
2022/11/08 03:22:47;;;;;;;;;;;13.00;78.00;;;;;;5061357;28;19917;-83
2022/11/08 03:25:12;;;;;;;;;;;12.90;78.10;;;;;;5078147;28;19912;-82
2022/11/08 03:27:38;;;;;;;;;;;13.00;77.90;;;;;;5063951;28;20212;-83
2022/11/08 03:30:05;;;;;;;;;;;13.10;77.70;;;;;;5061204;28;19912;-83
2022/11/08 03:32:30;;;;;;;;;;;13.20;77.20;;;;;;5072448;28;19916;-83
2022/11/08 03:34:58;;;;;;;;;;;13.10;77.50;;;;;;5060941;28;19932;-83
2022/11/08 03:37:24;;;;;;;;;;;13.10;77.30;;;;;;5062095;28;20426;-83
2022/11/08 03:39:49;;;;;;;;;;;13.00;77.60;;;;;;5062443;28;20003;-83
2022/11/08 03:42:15;;;;;;;;;;;12.90;78.00;;;;;;5054777;28;19923;-83
2022/11/08 03:44:40;;;;;;;;;;;12.80;78.40;;;;;;5076551;28;19920;-83
2022/11/08 03:47:06;;;;;;;;;;;12.90;78.10;;;;;;5063433;28;19912;-83
2022/11/08 03:49:31;;;;;;;;;;;12.70;78.70;;;;;;5059565;28;19913;-83
2022/11/08 03:51:57;;;;;;;;;;;12.70;79.00;;;;;;5079333;28;19946;-83
2022/11/08 03:54:22;;;;;;;;;;;12.80;78.80;;;;;;5061988;28;20251;-83
2022/11/08 03:56:48;;;;;;;;;;;12.60;79.40;;;;;;5080556;28;19916;-82
2022/11/08 03:59:13;;;;;;;;;;;12.60;79.70;;;;;;5062308;28;20333;-83
2022/11/08 04:01:39;;;;;;;;;;;12.60;79.90;;;;;;5089098;28;19979;-82
2022/11/08 04:04:05;;;;;;;;;;;12.70;79.30;;;;;;5083624;28;19916;-82
2022/11/08 04:06:31;;;;;;;;;;;12.70;79.30;;;;;;5080767;28;19923;-82
2022/11/08 04:08:56;;;;;;;;;;;12.70;79.40;;;;;;5064596;28;19998;-81
2022/11/08 04:16:51;;;;;;;;;;;12.60;79.40;;;;;;5081788;28;19962;-82
2022/11/08 04:22:01;;;;;;;;;;;12.50;79.70;;;;;;5081770;28;20343;-82
2022/11/08 04:24:26;;;;;;;;;;;12.50;80.00;;;;;;5079147;28;20003;-82
2022/11/08 04:26:52;;;;;;;;;;;12.50;80.10;;;;;;5077507;28;19916;-82
2022/11/08 04:29:17;;;;;;;;;;;12.50;80.20;;;;;;5076454;28;19916;-81
2022/11/08 04:31:43;;;;;;;;;;;12.50;79.90;;;;;;5061759;28;20322;-82
2022/11/08 04:34:08;;;;;;;;;;;12.40;80.30;;;;;;5060435;28;19913;-82
2022/11/08 04:36:34;;;;;;;;;;;12.40;80.20;;;;;;5059301;28;20598;-82
2022/11/08 04:39:00;;;;;;;;;;;12.40;80.60;;;;;;5056918;28;19934;-82
2022/11/08 04:41:25;;;;;;;;;;;12.50;79.90;;;;;;5061080;28;20405;-81
2022/11/08 04:43:52;;;;;;;;;;;12.50;80.10;;;;;;5055593;28;20023;-82
2022/11/08 04:46:19;;;;;;;;;;;12.50;80.00;;;;;;5090002;28;19912;-82
2022/11/08 04:48:45;;;;;;;;;;;12.30;80.50;;;;;;5076615;28;19913;-82
2022/11/08 04:51:12;;;;;;;;;;;12.20;80.60;;;;;;5058652;28;20407;-82
2022/11/08 04:53:37;;;;;;;;;;;12.10;81.00;;;;;;5078229;28;20007;-82
2022/11/08 04:56:04;;;;;;;;;;;12.20;81.20;;;;;;5059397;28;19959;-82
2022/11/08 04:58:49;;;;;;;;;;;12.10;81.30;;;;;;5055827;28;19913;-82
2022/11/08 05:01:16;;;;;;;;;;;12.10;81.50;;;;;;5076857;28;19919;-82
2022/11/08 05:03:43;;;;;;;;;;;12.20;80.90;;;;;;5077363;28;19920;-83
2022/11/08 05:06:10;;;;;;;;;;;12.10;81.30;;;;;;5059952;28;19920;-82
2022/11/08 05:08:36;;;;;;;;;;;12.10;81.20;;;;;;5070736;28;19923;-83
2022/11/08 05:11:02;;;;;;;;;;;12.20;80.70;;;;;;5052908;28;20355;-85
2022/11/08 05:13:28;;;;;;;;;;;12.10;81.10;;;;;;5056858;28;19916;-82
2022/11/08 05:15:53;;;;;;;;;;;12.10;81.20;;;;;;5047878;28;20590;-82
2022/11/08 05:18:19;;;;;;;;;;;12.10;81.20;;;;;;5077230;28;20375;-83
2022/11/08 05:23:29;;;;;;;;;;;12.00;81.80;;;;;;5070819;28;19974;-82
2022/11/08 05:25:56;;;;;;;;;;;11.90;81.70;;;;;;5080401;28;20380;-82
2022/11/08 05:28:22;;;;;;;;;;;11.90;81.80;;;;;;5059059;28;19991;-86
2022/11/08 05:30:51;;;;;;;;;;;11.90;82.20;;;;;;5059873;28;19916;-84
2022/11/08 05:33:16;;;;;;;;;;;11.90;81.80;;;;;;5057061;28;19987;-85
2022/11/08 05:35:42;;;;;;;;;;;11.80;82.00;;;;;;5070578;28;19952;-85
2022/11/08 05:38:07;;;;;;;;;;;11.90;81.60;;;;;;5061499;28;20332;-84
2022/11/08 05:40:33;;;;;;;;;;;11.80;81.40;;;;;;5056295;28;19912;-84
2022/11/08 05:42:59;;;;;;;;;;;11.90;81.30;;;;;;5051787;28;20298;-84
2022/11/08 05:45:24;;;;;;;;;;;12.00;80.90;;;;;;5050662;28;19920;-84
2022/11/08 05:47:49;;;;;;;;;;;12.10;80.70;;;;;;5053105;28;19923;-84
2022/11/08 05:50:15;;;;;;;;;;;12.10;80.30;;;;;;5057754;28;20007;-84
2022/11/08 05:52:41;;;;;;;;;;;12.10;80.20;;;;;;5059270;28;20456;-84
2022/11/08 05:55:06;;;;;;;;;;;12.00;80.10;;;;;;5061052;28;19920;-84
2022/11/08 05:57:32;;;;;;;;;;;12.00;80.00;;;;;;5065486;28;19927;-83
2022/11/08 05:59:57;;;;;;;;;;;12.00;79.90;;;;;;5063147;28;19920;-84
2022/11/08 06:02:23;;;;;;;;;;;12.00;79.50;;;;;;5063922;28;19924;-84
2022/11/08 06:04:48;;;;;;;;;;;12.10;79.10;;;;;;5070765;28;19913;-83
2022/11/08 06:07:14;;;;;;;;;;;12.00;79.00;;;;;;5053945;28;20254;-87
2022/11/08 06:09:39;;;;;;;;;;;12.00;79.20;;;;;;5047497;28;20011;-84
2022/11/08 06:12:05;;;;;;;;;;;11.90;79.40;;;;;;5049770;28;19913;-82
2022/11/08 06:14:31;;;;;;;;;;;12.00;78.80;;;;;;5077037;28;19958;-83
2022/11/08 06:16:56;;;;;;;;;;;12.00;78.60;;;;;;5059857;28;19952;-84
2022/11/08 06:19:22;;;;;;;;;;;12.10;78.50;;;;;;5051428;28;19913;-83
2022/11/08 06:21:47;;;;;;;;;;;12.00;78.20;;;;;;5066531;22;19982;-77
2022/11/08 06:24:14;;;;;;;;;;;12.20;77.40;;;;;;5070455;28;19964;-76
2022/11/08 06:26:39;;;;;;;;;;;12.10;77.50;;;;;;5067862;28;19917;-75
2022/11/08 06:29:05;;;;;;;;;;;12.10;77.70;;;;;;5060518;28;19940;-77
2022/11/08 06:31:30;;;;;;;;;;;12.10;77.80;;;;;;5063570;28;20011;-80
2022/11/08 06:33:56;;;;;;;;;;;12.00;78.50;;;;;;5071533;28;19913;-79
2022/11/08 06:36:21;;;;;;;;;;;12.00;77.60;;;;;;5067243;28;20359;-76
2022/11/08 06:38:47;;;;;;;;;;;12.10;76.80;;;;;;5069653;28;19912;-77
2022/11/08 06:41:15;;;;;;;;;;;12.20;76.30;;;;;;5069856;28;20008;-78
2022/11/08 06:43:40;;;;;;;;;;;12.30;75.40;;;;;;5067144;28;19932;-78
2022/11/08 06:46:06;;;;;;;;;;;12.30;76.30;;;;;;5071981;28;19913;-78
2022/11/08 06:48:31;;;;;;;;;;;12.30;75.20;;;;;;5074123;28;19947;-77
2022/11/08 06:50:57;;;;;;;;;;;12.40;74.30;;;;;;5078293;28;19912;-77
2022/11/08 06:53:22;;;;;;;;;;;12.30;74.10;;;;;;5078534;28;19915;-78
2022/11/08 06:55:48;;;;;;;;;;;12.30;74.00;;;;;;5063540;28;19921;-78
2022/11/08 06:58:13;;;;;;;;;;;12.40;73.50;;;;;;5076478;28;19909;-77
2022/11/08 07:00:39;;;;;;;;;;;12.50;73.40;;;;;;5069271;28;19920;-78
2022/11/08 07:03:04;;;;;;;;;;;12.50;73.30;;;;;;5072476;28;19917;-77
2022/11/08 07:05:31;;;;;;;;;;;12.60;72.70;;;;;;5076040;28;19913;-77
2022/11/08 07:07:56;;;;;;;;;;;12.60;72.30;;;;;;5070793;28;19913;-78
2022/11/08 07:10:23;;;;;;;;;;;12.70;71.90;;;;;;5072309;28;19917;-78
2022/11/08 07:12:56;;;;;;;;;;;12.80;71.30;;;;;;5064052;28;19912;-78
2022/11/08 07:15:21;;;;;;;;;;;12.70;71.10;;;;;;5063166;28;19916;-78
2022/11/08 07:17:47;;;;;;;;;;;12.80;70.80;;;;;;5073251;28;19919;-77
2022/11/08 07:20:12;;;;;;;;;;;12.80;70.70;;;;;;5075631;28;19909;-78
2022/11/08 07:22:38;;;;;;;;;;;12.80;70.00;;;;;;5068901;28;19916;-78
2022/11/08 07:25:03;;;;;;;;;;;13.10;69.40;;;;;;5049727;28;19920;-77
2022/11/08 07:27:29;;;;;;;;;;;13.10;69.40;;;;;;5060882;28;19913;-78
2022/11/08 07:29:54;;;;;;;;;;;13.10;68.80;;;;;;5062694;28;20383;-77
2022/11/08 07:32:20;;;;;;;;;;;13.10;68.70;;;;;;5067770;28;20615;-78
2022/11/08 07:34:45;;;;;;;;;;;13.30;68.10;;;;;;5050961;28;19966;-79
2022/11/08 07:37:11;;;;;;;;;;;13.30;68.50;;;;;;5071691;28;19999;-79
2022/11/08 07:39:36;;;;;;;;;;;13.30;67.40;;;;;;5055380;28;19979;-78
2022/11/08 07:42:02;;;;;;;;;;;13.40;67.80;;;;;;5059804;28;20408;-79
2022/11/08 07:44:27;;;;;;;;;;;13.40;68.00;;;;;;5049986;28;20757;-79
2022/11/08 07:46:53;;;;;;;;;;;13.50;67.20;;;;;;5068300;28;19920;-80
2022/11/08 07:49:19;;;;;;;;;;;13.60;66.50;;;;;;5067921;28;19920;-79
2022/11/08 07:51:44;;;;;;;;;;;13.60;66.70;;;;;;5063293;28;19920;-79
2022/11/08 07:54:10;;;;;;;;;;;13.80;65.80;;;;;;5053407;28;20011;-79
2022/11/08 07:56:35;;;;;;;;;;;13.80;65.80;;;;;;5071501;28;19962;-79
2022/11/08 07:59:01;;;;;;;;;;;13.80;66.10;;;;;;5074354;28;19908;-79
2022/11/08 08:01:26;;;;;;;;;;;13.80;65.60;;;;;;5052994;28;19921;-80
2022/11/08 08:03:52;;;;;;;;;;;13.80;65.50;;;;;;5068178;28;20318;-79
2022/11/08 08:06:17;;;;;;;;;;;13.80;65.90;;;;;;5056028;28;19991;-79
2022/11/08 08:08:42;;;;;;;;;;;13.90;65.30;;;;;;5061899;28;20375;-80
2022/11/08 08:11:09;;;;;;;;;;;14.00;65.40;;;;;;5056935;28;19920;-79
2022/11/08 08:13:34;;;;;;;;;;;14.00;65.10;;;;;;5055589;28;20347;-79
2022/11/08 08:16:00;;;;;;;;;;;14.20;64.70;;;;;;5056693;28;19967;-81
2022/11/08 08:18:26;;;;;;;;;;;14.20;64.80;;;;;;5065177;28;19916;-80
2022/11/08 08:20:51;;;;;;;;;;;14.10;65.30;;;;;;5063724;28;19920;-80
2022/11/08 08:23:17;;;;;;;;;;;14.10;65.40;;;;;;5058485;28;20376;-79
2022/11/08 08:25:42;;;;;;;;;;;14.20;65.10;;;;;;5062369;28;20372;-80
2022/11/08 08:28:08;;;;;;;;;;;14.20;64.90;;;;;;5051457;28;19913;-80
2022/11/08 08:30:33;;;;;;;;;;;14.30;64.90;;;;;;5058512;28;19956;-80
2022/11/08 08:33:00;;;;;;;;;;;14.30;65.00;;;;;;5053430;28;19921;-79
2022/11/08 08:35:25;;;;;;;;;;;14.40;64.50;;;;;;5049250;28;19924;-80
2022/11/08 08:37:51;;;;;;;;;;;14.50;64.30;;;;;;5054307;28;19913;-80
2022/11/08 08:40:16;;;;;;;;;;;14.50;64.30;;;;;;5053077;28;19912;-81
2022/11/08 08:42:42;;;;;;;;;;;14.60;63.90;;;;;;5055799;28;19952;-82
2022/11/08 08:45:08;;;;;;;;;;;14.70;63.80;;;;;;5054273;28;19916;-82
2022/11/08 08:47:34;;;;;;;;;;;14.80;63.70;;;;;;5064541;28;19912;-83
2022/11/08 08:49:59;;;;;;;;;;;14.80;64.00;;;;;;5076404;28;19974;-81
2022/11/08 08:52:25;;;;;;;;;;;14.80;63.70;;;;;;5051726;28;19913;-83
2022/11/08 08:54:50;;;;;;;;;;;14.90;63.20;;;;;;5051973;28;19913;-82
2022/11/08 08:57:16;;;;;;;;;;;14.90;63.40;;;;;;5057144;28;19920;-82
2022/11/08 08:59:41;;;;;;;;;;;14.90;63.40;;;;;;5052321;28;19921;-82
2022/11/08 09:02:07;;;;;;;;;;;14.90;63.30;;;;;;5051480;28;19912;-81
2022/11/08 09:04:34;;;;;;;;;;;14.90;62.70;;;;;;5071061;28;20402;-82
2022/11/08 09:07:00;;;;;;;;;;;15.00;62.30;;;;;;5069205;28;19916;-81
2022/11/08 09:09:25;;;;;;;;;;;14.90;62.60;;;;;;5060207;28;20031;-83
2022/11/08 09:11:51;;;;;;;;;;;14.80;63.70;;;;;;5061930;28;19927;-82
2022/11/08 09:14:16;;;;;;;;;;;14.90;63.10;;;;;;5060469;28;19913;-82
2022/11/08 09:16:41;;;;;;;;;;;14.90;63.50;;;;;;5068713;28;19913;-81
2022/11/08 09:19:07;;;;;;;;;;;14.80;63.40;;;;;;5065101;28;20023;-82
2022/11/08 09:21:32;;;;;;;;;;;14.80;63.40;;;;;;5049352;28;20354;-81
2022/11/08 09:23:58;;;;;;;;;;;14.90;63.30;;;;;;5068159;28;20376;-82
2022/11/08 09:26:23;;;;;;;;;;;14.90;63.60;;;;;;5055486;28;19923;-83
2022/11/08 09:28:49;;;;;;;;;;;14.80;63.40;;;;;;5046328;28;20622;-83
2022/11/08 09:31:14;;;;;;;;;;;14.80;63.00;;;;;;5052320;28;20434;-83
2022/11/08 09:33:40;;;;;;;;;;;14.90;63.30;;;;;;5058710;28;19916;-83
2022/11/08 09:36:07;;;;;;;;;;;15.10;62.00;;;;;;5056153;28;19913;-83
2022/11/08 09:38:33;;;;;;;;;;;15.00;61.70;;;;;;5067160;28;19912;-83
2022/11/08 09:40:58;;;;;;;;;;;15.00;62.80;;;;;;5061206;28;19921;-81
2022/11/08 09:43:31;;;;;;;;;;;15.00;62.60;;;;;;5065154;28;19924;-82
2022/11/08 09:45:57;;;;;;;;;;;15.00;62.30;;;;;;5056780;28;19948;-83
2022/11/08 09:48:28;;;;;;;;;;;15.00;62.10;;;;;;5073839;28;19919;-82
2022/11/08 09:50:54;;;;;;;;;;;14.90;62.30;;;;;;5072618;28;20403;-82
2022/11/08 09:53:34;;;;;;;;;;;15.00;61.60;;;;;;5052799;28;19912;-82
2022/11/08 09:56:10;;;;;;;;;;;15.00;61.00;;;;;;5064531;28;19944;-82
2022/11/08 09:58:39;;;;;;;;;;;15.10;60.50;;;;;;5053421;28;19913;-82
2022/11/08 10:01:09;;;;;;;;;;;15.10;60.10;;;;;;5068802;28;20050;-81
2022/11/08 10:03:34;;;;;;;;;;;15.20;60.20;;;;;;5061414;28;20295;-82
2022/11/08 10:06:00;;;;;;;;;;;15.10;61.40;;;;;;5063118;28;19914;-82
2022/11/08 10:08:37;;;;;;;;;;;15.40;60.20;;;;;;5062129;28;19923;-81
2022/11/08 10:11:11;;;;;;;;;;;15.40;59.60;;;;;;5052662;28;19917;-79
2022/11/08 10:13:52;;;;;;;;;;;15.50;59.70;;;;;;5056333;28;19919;-80
2022/11/08 10:16:21;;;;;;;;;;;15.50;59.70;;;;;;5054576;28;19973;-80
2022/11/08 10:18:56;;;;;;;;;;;15.50;59.60;;;;;;5057047;28;20011;-80
2022/11/08 10:21:30;;;;;;;;;;;15.50;59.30;;;;;;5063955;28;19921;-80
2022/11/08 10:23:55;;;;;;;;;;;15.60;60.00;;;;;;5048270;28;19921;-81
2022/11/08 10:26:24;;;;;;;;;;;15.60;59.80;;;;;;5057860;28;20465;-81
2022/11/08 10:29:16;;;;;;;;;;;15.60;60.00;;;;;;5053898;28;19967;-81
2022/11/08 10:31:44;;;;;;;;;;;15.50;60.30;;;;;;5052806;28;19913;-86
2022/11/08 10:34:12;;;;;;;;;;;15.50;60.40;;;;;;5058233;28;19913;-80
2022/11/08 10:36:43;;;;;;;;;;;15.50;61.00;;;;;;5048254;28;20460;-84
2022/11/08 10:39:28;;;;;;;;;;;15.50;60.90;;;;;;5044954;28;19913;-83
2022/11/08 10:42:12;;;;;;;;;;;15.60;61.00;;;;;;5056077;28;19978;-84
2022/11/08 10:44:39;;;;;;;;;;;15.60;59.90;;;;;;5053895;28;20388;-84
2022/11/08 10:47:06;;;;;;;;;;;15.60;61.10;;;;;;5056617;28;19913;-84
2022/11/08 10:49:31;;;;;;;;;;;15.60;60.60;;;;;;5055866;28;19917;-85
2022/11/08 10:51:58;;;;;;;;;;;15.50;61.30;;;;;;5053792;28;20015;-85
2022/11/08 10:54:42;;;;;;;;;;;15.60;60.90;;;;;;5041052;28;19917;-85
2022/11/08 10:57:09;;;;;;;;;;;15.50;60.40;;;;;;5058239;28;20001;-84
2022/11/08 10:59:34;;;;;;;;;;;15.60;60.30;;;;;;5047055;28;19912;-85
2022/11/08 11:02:00;;;;;;;;;;;15.60;60.10;;;;;;5068703;28;20284;-84
2022/11/08 11:04:29;;;;;;;;;;;15.60;60.80;;;;;;5071559;28;19918;-84
2022/11/08 11:07:01;;;;;;;;;;;15.60;60.80;;;;;;5063666;28;20063;-84
2022/11/08 11:09:27;;;;;;;;;;;15.60;60.40;;;;;;5060574;28;19919;-82
2022/11/08 11:11:57;;;;;;;;;;;15.50;60.80;;;;;;5055930;28;20015;-83
2022/11/08 11:14:23;;;;;;;;;;;15.40;61.80;;;;;;5062288;28;19960;-82
2022/11/08 11:16:48;;;;;;;;;;;15.50;61.40;;;;;;5064754;28;19947;-82
2022/11/08 11:19:14;;;;;;;;;;;15.50;60.80;;;;;;5063173;28;19913;-84
2022/11/08 11:21:42;;;;;;;;;;;15.50;60.80;;;;;;4986617;28;1760333;-83
2022/11/08 11:24:09;;;;;;;;;;;15.50;60.90;;;;;;5051145;28;19924;-84
2022/11/08 11:26:39;;;;;;;;;;;15.40;60.70;;;;;;5053485;28;20368;-81
2022/11/08 11:29:04;;;;;;;;;;;15.50;61.30;;;;;;5056396;28;19912;-83
2022/11/08 11:31:31;;;;;;;;;;;15.60;61.00;;;;;;5058803;28;19917;-81
2022/11/08 11:33:57;;;;;;;;;;;15.50;61.20;;;;;;5050528;28;19917;-83
2022/11/08 11:36:24;;;;;;;;;;;15.50;61.50;;;;;;5049499;28;19916;-82
2022/11/08 11:39:03;;;;;;;;;;;15.50;61.50;;;;;;5046955;28;19991;-81
2022/11/08 11:41:45;;;;;;;;;;;15.60;61.50;;;;;;5048927;28;20862;-81
2022/11/08 11:44:13;;;;;;;;;;;15.60;61.40;;;;;;5055347;28;20366;-82
2022/11/08 11:46:55;;;;;;;;;;;15.50;61.10;;;;;;5067361;28;19955;-81
2022/11/08 11:49:21;;;;;;;;;;;15.50;61.70;;;;;;5058809;28;19920;-82
2022/11/08 11:51:46;;;;;;;;;;;15.50;61.20;;;;;;5046568;28;19920;-82
2022/11/08 11:54:15;;;;;;;;;;;15.30;61.30;;;;;;5032129;28;19922;-82
2022/11/08 11:56:44;;;;;;;;;;;15.40;61.30;;;;;;5055938;28;19927;-82
2022/11/08 11:59:26;;;;;;;;;;;15.40;61.60;;;;;;5038595;28;20352;-79
2022/11/08 12:01:58;;;;;;;;;;;15.50;62.40;;;;;;5047073;28;19913;-80
2022/11/08 12:04:29;;;;;;;;;;;15.40;61.80;;;;;;5034616;28;19939;-80
2022/11/08 12:07:07;;;;;;;;;;;15.60;61.50;;;;;;5046228;28;19939;-82
2022/11/08 12:09:44;;;;;;;;;;;15.60;61.90;;;;;;5039612;28;19970;-83
2022/11/08 12:12:28;;;;;;;;;;;15.60;61.50;;;;;;5057267;28;19916;-80
2022/11/08 12:14:57;;;;;;;;;;;15.60;61.30;;;;;;5063180;28;20776;-84
2022/11/08 12:17:29;;;;;;;;;;;15.70;61.00;;;;;;5055626;28;19913;-82
2022/11/08 12:20:13;;;;;;;;;;;15.80;60.50;;;;;;5064699;28;19919;-82
2022/11/08 12:22:50;;;;;;;;;;;15.80;61.40;;;;;;5064388;22;19954;-81
2022/11/08 12:25:25;;;;;;;;;;;15.90;61.00;;;;;;5031426;28;19909;-80
2022/11/08 12:28:03;;;;;;;;;;;15.90;61.20;;;;;;5043071;28;19982;-81
2022/11/08 12:30:35;;;;;;;;;;;15.90;60.60;;;;;;5034156;28;20300;-81
2022/11/08 12:33:16;;;;;;;;;;;16.00;60.70;;;;;;5031725;28;20202;-80
2022/11/08 12:35:52;;;;;;;;;;;15.90;61.30;;;;;;5024488;28;20338;-82
2022/11/08 12:38:33;;;;;;;;;;;15.90;61.40;;;;;;5050821;28;20012;-80
2022/11/08 12:40:59;;;;;;;;;;;16.00;61.50;;;;;;5031599;28;19917;-80
2022/11/08 12:43:41;;;;;;;;;;;16.00;61.10;;;;;;5037790;28;19936;-79
2022/11/08 12:46:09;;;;;;;;;;;16.10;60.60;;;;;;5033585;28;19935;-80
2022/11/08 12:48:53;;;;;;;;;;;16.20;59.60;;;;;;5030864;28;19913;-80
2022/11/08 12:51:41;;;;;;;;;;;16.20;59.90;;;;;;5015230;28;19955;-80
2022/11/08 12:54:20;;;;;;;;;;;16.30;59.50;;;;;;5032327;28;19975;-80
2022/11/08 12:56:47;;;;;;;;;;;16.10;60.10;;;;;;5024278;28;20262;-81
2022/11/08 12:59:21;;;;;;;;;;;16.20;59.30;;;;;;5035329;28;19917;-80
2022/11/08 13:01:47;;;;;;;;;;;16.20;59.20;;;;;;5031331;28;19982;-80
2022/11/08 13:04:31;;;;;;;;;;;16.10;59.60;;;;;;5036201;28;19917;-80
2022/11/08 13:06:56;;;;;;;;;;;16.10;59.90;;;;;;5033733;28;19963;-80
2022/11/08 13:09:34;;;;;;;;;;;16.00;60.20;;;;;;5039778;28;19917;-81
2022/11/08 13:12:05;;;;;;;;;;;16.00;60.90;;;;;;5022881;28;19917;-81
2022/11/08 13:14:31;;;;;;;;;;;16.10;61.00;;;;;;5034124;28;20000;-82
2022/11/08 13:17:15;;;;;;;;;;;16.20;60.50;;;;;;5030093;28;19951;-80
2022/11/08 13:19:50;;;;;;;;;;;16.20;60.20;;;;;;5045230;28;19963;-82
2022/11/08 13:22:27;;;;;;;;;;;16.30;60.10;;;;;;5012250;28;19917;-80
2022/11/08 13:24:54;;;;;;;;;;;16.40;59.50;;;;;;5020579;28;19921;-81
2022/11/08 13:27:20;;;;;;;;;;;16.40;59.80;;;;;;5009850;28;20289;-80
2022/11/08 13:29:46;;;;;;;;;;;16.50;59.40;;;;;;5040281;28;20308;-81
2022/11/08 13:32:19;;;;;;;;;;;16.50;59.50;;;;;;5024896;28;19915;-83
2022/11/08 13:34:49;;;;;;;;;;;16.40;60.10;;;;;;5033228;28;19923;-82
2022/11/08 13:37:30;;;;;;;;;;;16.40;60.00;;;;;;5009760;28;19909;-83
2022/11/08 13:40:15;;;;;;;;;;;16.50;60.20;;;;;;5026927;28;19917;-82
2022/11/08 13:42:43;;;;;;;;;;;16.40;60.50;;;;;;5019997;28;20017;-81
2022/11/08 13:45:32;;;;;;;;;;;16.30;60.80;;;;;;5011318;28;19909;-81
2022/11/08 13:47:58;;;;;;;;;;;16.20;61.30;;;;;;5016823;28;20021;-81
2022/11/08 13:50:32;;;;;;;;;;;16.10;61.60;;;;;;5044332;28;19913;-80
2022/11/08 13:53:01;;;;;;;;;;;16.10;61.40;;;;;;5018153;28;19917;-81
2022/11/08 13:55:41;;;;;;;;;;;16.10;61.70;;;;;;5030895;28;19967;-80
2022/11/08 13:58:26;;;;;;;;;;;16.20;61.80;;;;;;5039739;28;19913;-80
2022/11/08 14:00:51;;;;;;;;;;;16.10;62.20;;;;;;5032996;28;20016;-81
2022/11/08 14:03:40;;;;;;;;;;;16.10;62.00;;;;;;5038950;28;19914;-80
2022/11/08 14:06:05;;;;;;;;;;;16.10;61.70;;;;;;5032104;28;19936;-81
2022/11/08 14:08:36;;;;;;;;;;;16.20;62.10;;;;;;5031136;28;19920;-79
2022/11/08 14:11:14;;;;;;;;;;;16.10;62.10;;;;;;5036782;28;19928;-81
2022/11/08 14:13:48;;;;;;;;;;;16.10;62.00;;;;;;5023704;28;19920;-78
2022/11/08 14:16:21;;;;;;;;;;;16.00;62.30;;;;;;5061803;28;19972;-78
2022/11/08 14:18:46;;;;;;;;;;;16.10;62.50;;;;;;5025413;28;19913;-78
2022/11/08 14:21:17;;;;;;;;;;;16.00;63.00;;;;;;5038442;28;19913;-79
2022/11/08 14:23:43;;;;;;;;;;;16.10;62.60;;;;;;5015823;28;20223;-79
2022/11/08 14:26:24;;;;;;;;;;;16.00;63.10;;;;;;5010438;28;19984;-79
2022/11/08 14:28:51;;;;;;;;;;;15.90;63.40;;;;;;5011507;28;19928;-78
2022/11/08 14:31:34;;;;;;;;;;;16.00;62.80;;;;;;5020535;28;19917;-78
2022/11/08 14:34:00;;;;;;;;;;;16.00;62.90;;;;;;5026537;28;19913;-79
2022/11/08 14:36:27;;;;;;;;;;;16.00;62.60;;;;;;5010528;28;20011;-78
2022/11/08 14:38:55;;;;;;;;;;;16.10;62.80;;;;;;5027466;28;19952;-80
2022/11/08 14:41:23;;;;;;;;;;;16.00;62.50;;;;;;5027947;28;19924;-79